sensor_id;sensor_type;location;lat;lon;timestamp;pressure;altitude;pressure_sealevel;temperature
11424;BMP180;5768;51.476;7.210;2022-10-31T00:02:16;100766.00;;;19.60
11424;BMP180;5768;51.476;7.210;2022-10-31T00:07:20;100768.00;;;19.60
11424;BMP180;5768;51.476;7.210;2022-10-31T00:12:22;100787.00;;;19.60
11424;BMP180;5768;51.476;7.210;2022-10-31T00:17:24;100779.00;;;19.60
11424;BMP180;5768;51.476;7.210;2022-10-31T00:22:28;100770.00;;;19.60
11424;BMP180;5768;51.476;7.210;2022-10-31T00:27:30;100775.00;;;19.40
11424;BMP180;5768;51.476;7.210;2022-10-31T00:32:32;100773.00;;;19.30
11424;BMP180;5768;51.476;7.210;2022-10-31T00:37:36;100763.00;;;19.30
11424;BMP180;5768;51.476;7.210;2022-10-31T00:42:39;100770.00;;;19.20
11424;BMP180;5768;51.476;7.210;2022-10-31T00:47:42;100777.00;;;19.30
11424;BMP180;5768;51.476;7.210;2022-10-31T00:52:46;100769.00;;;19.20
11424;BMP180;5768;51.476;7.210;2022-10-31T00:57:48;100772.00;;;19.10
11424;BMP180;5768;51.476;7.210;2022-10-31T01:02:50;100783.00;;;19.10
11424;BMP180;5768;51.476;7.210;2022-10-31T01:07:53;100782.00;;;19.20
11424;BMP180;5768;51.476;7.210;2022-10-31T01:12:55;100792.00;;;19.20
11424;BMP180;5768;51.476;7.210;2022-10-31T01:17:57;100780.00;;;19.30
11424;BMP180;5768;51.476;7.210;2022-10-31T01:23:01;100783.00;;;19.20
11424;BMP180;5768;51.476;7.210;2022-10-31T01:28:03;100775.00;;;19.20
11424;BMP180;5768;51.476;7.210;2022-10-31T01:33:06;100797.00;;;19.20
11424;BMP180;5768;51.476;7.210;2022-10-31T01:38:09;100786.00;;;19.30
11424;BMP180;5768;51.476;7.210;2022-10-31T01:43:13;100794.00;;;19.30
11424;BMP180;5768;51.476;7.210;2022-10-31T01:48:20;100797.00;;;19.30
11424;BMP180;5768;51.476;7.210;2022-10-31T01:53:26;100790.00;;;19.30
11424;BMP180;5768;51.476;7.210;2022-10-31T01:58:31;100783.00;;;19.40
11424;BMP180;5768;51.476;7.210;2022-10-31T02:03:33;100768.00;;;19.40
11424;BMP180;5768;51.476;7.210;2022-10-31T02:08:39;100765.00;;;19.40
11424;BMP180;5768;51.476;7.210;2022-10-31T02:13:42;100762.00;;;19.30
11424;BMP180;5768;51.476;7.210;2022-10-31T02:18:44;100751.00;;;19.30
11424;BMP180;5768;51.476;7.210;2022-10-31T02:24:33;100745.00;;;19.20
11424;BMP180;5768;51.476;7.210;2022-10-31T02:30:10;100747.00;;;18.90
11424;BMP180;5768;51.476;7.210;2022-10-31T02:35:28;100745.00;;;18.80
11424;BMP180;5768;51.476;7.210;2022-10-31T02:40:38;100745.00;;;18.70
11424;BMP180;5768;51.476;7.210;2022-10-31T02:45:51;100754.00;;;18.60
11424;BMP180;5768;51.476;7.210;2022-10-31T02:50:59;100752.00;;;18.60
11424;BMP180;5768;51.476;7.210;2022-10-31T02:56:06;100752.00;;;18.80
11424;BMP180;5768;51.476;7.210;2022-10-31T03:01:31;100761.00;;;18.80
11424;BMP180;5768;51.476;7.210;2022-10-31T03:06:45;100763.00;;;18.90
11424;BMP180;5768;51.476;7.210;2022-10-31T03:11:58;100774.00;;;19.00
11424;BMP180;5768;51.476;7.210;2022-10-31T03:17:08;100783.00;;;19.10
11424;BMP180;5768;51.476;7.210;2022-10-31T03:22:21;100773.00;;;19.10
11424;BMP180;5768;51.476;7.210;2022-10-31T03:27:29;100768.00;;;19.10
11424;BMP180;5768;51.476;7.210;2022-10-31T03:32:38;100774.00;;;19.00
11424;BMP180;5768;51.476;7.210;2022-10-31T03:37:45;100760.00;;;19.00
11424;BMP180;5768;51.476;7.210;2022-10-31T03:42:53;100769.00;;;18.80
11424;BMP180;5768;51.476;7.210;2022-10-31T03:47:57;100764.00;;;18.70
11424;BMP180;5768;51.476;7.210;2022-10-31T03:53:08;100743.00;;;18.50
11424;BMP180;5768;51.476;7.210;2022-10-31T03:58:18;100746.00;;;18.30
11424;BMP180;5768;51.476;7.210;2022-10-31T04:03:25;100746.00;;;18.10
11424;BMP180;5768;51.476;7.210;2022-10-31T04:08:33;100750.00;;;17.90
11424;BMP180;5768;51.476;7.210;2022-10-31T04:13:40;100748.00;;;17.80
11424;BMP180;5768;51.476;7.210;2022-10-31T04:18:44;100754.00;;;17.70
11424;BMP180;5768;51.476;7.210;2022-10-31T04:23:48;100752.00;;;17.70
11424;BMP180;5768;51.476;7.210;2022-10-31T04:28:50;100748.00;;;17.70
11424;BMP180;5768;51.476;7.210;2022-10-31T04:33:52;100750.00;;;17.70
11424;BMP180;5768;51.476;7.210;2022-10-31T04:38:55;100743.00;;;17.60
11424;BMP180;5768;51.476;7.210;2022-10-31T04:43:57;100750.00;;;17.60
11424;BMP180;5768;51.476;7.210;2022-10-31T04:48:59;100745.00;;;17.70
11424;BMP180;5768;51.476;7.210;2022-10-31T04:54:03;100742.00;;;17.60
11424;BMP180;5768;51.476;7.210;2022-10-31T04:59:06;100732.00;;;17.50
11424;BMP180;5768;51.476;7.210;2022-10-31T05:04:08;100719.00;;;17.40
11424;BMP180;5768;51.476;7.210;2022-10-31T05:09:12;100722.00;;;17.40
11424;BMP180;5768;51.476;7.210;2022-10-31T05:14:14;100716.00;;;17.40
11424;BMP180;5768;51.476;7.210;2022-10-31T05:19:16;100714.00;;;17.30
11424;BMP180;5768;51.476;7.210;2022-10-31T05:24:19;100725.00;;;17.20
11424;BMP180;5768;51.476;7.210;2022-10-31T05:29:25;100719.00;;;17.10
11424;BMP180;5768;51.476;7.210;2022-10-31T05:34:27;100699.00;;;17.10
11424;BMP180;5768;51.476;7.210;2022-10-31T05:39:30;100702.00;;;17.10
11424;BMP180;5768;51.476;7.210;2022-10-31T05:44:32;100704.00;;;17.10
11424;BMP180;5768;51.476;7.210;2022-10-31T05:49:34;100705.00;;;17.00
11424;BMP180;5768;51.476;7.210;2022-10-31T05:54:38;100697.00;;;17.10
11424;BMP180;5768;51.476;7.210;2022-10-31T05:59:40;100697.00;;;17.10
11424;BMP180;5768;51.476;7.210;2022-10-31T06:04:42;100709.00;;;17.10
11424;BMP180;5768;51.476;7.210;2022-10-31T06:09:46;100694.00;;;17.10
11424;BMP180;5768;51.476;7.210;2022-10-31T06:14:48;100695.00;;;17.10
11424;BMP180;5768;51.476;7.210;2022-10-31T06:19:50;100701.00;;;17.00
11424;BMP180;5768;51.476;7.210;2022-10-31T06:24:53;100698.00;;;17.00
11424;BMP180;5768;51.476;7.210;2022-10-31T06:29:56;100697.00;;;17.00
11424;BMP180;5768;51.476;7.210;2022-10-31T06:34:58;100708.00;;;17.00
11424;BMP180;5768;51.476;7.210;2022-10-31T06:40:01;100706.00;;;17.00
11424;BMP180;5768;51.476;7.210;2022-10-31T06:45:04;100701.00;;;17.00
11424;BMP180;5768;51.476;7.210;2022-10-31T06:50:08;100712.00;;;17.00
11424;BMP180;5768;51.476;7.210;2022-10-31T06:55:11;100711.00;;;17.00
11424;BMP180;5768;51.476;7.210;2022-10-31T07:00:17;100708.00;;;17.10
11424;BMP180;5768;51.476;7.210;2022-10-31T07:05:19;100707.00;;;17.10
11424;BMP180;5768;51.476;7.210;2022-10-31T07:10:25;100726.00;;;17.20
11424;BMP180;5768;51.476;7.210;2022-10-31T07:15:32;100733.00;;;17.20
11424;BMP180;5768;51.476;7.210;2022-10-31T07:20:35;100725.00;;;17.20
11424;BMP180;5768;51.476;7.210;2022-10-31T07:25:39;100727.00;;;17.20
11424;BMP180;5768;51.476;7.210;2022-10-31T07:30:41;100722.00;;;17.30
11424;BMP180;5768;51.476;7.210;2022-10-31T07:35:43;100725.00;;;17.30
11424;BMP180;5768;51.476;7.210;2022-10-31T07:40:50;100728.00;;;17.40
11424;BMP180;5768;51.476;7.210;2022-10-31T07:45:54;100736.00;;;17.60
11424;BMP180;5768;51.476;7.210;2022-10-31T07:50:56;100731.00;;;17.60
11424;BMP180;5768;51.476;7.210;2022-10-31T07:55:59;100719.00;;;17.60
11424;BMP180;5768;51.476;7.210;2022-10-31T08:01:01;100717.00;;;17.70
11424;BMP180;5768;51.476;7.210;2022-10-31T08:06:04;100724.00;;;17.80
11424;BMP180;5768;51.476;7.210;2022-10-31T08:11:08;100720.00;;;17.90
11424;BMP180;5768;51.476;7.210;2022-10-31T08:16:13;100722.00;;;18.10
11424;BMP180;5768;51.476;7.210;2022-10-31T08:21:15;100723.00;;;18.20
11424;BMP180;5768;51.476;7.210;2022-10-31T08:26:19;100731.00;;;18.30
11424;BMP180;5768;51.476;7.210;2022-10-31T08:31:21;100733.00;;;18.40
11424;BMP180;5768;51.476;7.210;2022-10-31T08:36:23;100737.00;;;18.50
11424;BMP180;5768;51.476;7.210;2022-10-31T08:41:27;100735.00;;;18.60
11424;BMP180;5768;51.476;7.210;2022-10-31T08:46:29;100733.00;;;18.70
11424;BMP180;5768;51.476;7.210;2022-10-31T08:51:32;100728.00;;;18.90
11424;BMP180;5768;51.476;7.210;2022-10-31T08:56:36;100724.00;;;19.10
11424;BMP180;5768;51.476;7.210;2022-10-31T09:01:38;100717.00;;;19.20
11424;BMP180;5768;51.476;7.210;2022-10-31T09:06:41;100715.00;;;19.30
11424;BMP180;5768;51.476;7.210;2022-10-31T09:11:44;100699.00;;;19.50
11424;BMP180;5768;51.476;7.210;2022-10-31T09:16:46;100705.00;;;19.60
11424;BMP180;5768;51.476;7.210;2022-10-31T09:21:52;100697.00;;;19.80
11424;BMP180;5768;51.476;7.210;2022-10-31T09:26:58;100694.00;;;20.00
11424;BMP180;5768;51.476;7.210;2022-10-31T09:32:00;100684.00;;;20.00
11424;BMP180;5768;51.476;7.210;2022-10-31T09:37:02;100675.00;;;20.20
11424;BMP180;5768;51.476;7.210;2022-10-31T09:42:29;100675.00;;;20.40
11424;BMP180;5768;51.476;7.210;2022-10-31T09:47:52;100680.00;;;20.60
11424;BMP180;5768;51.476;7.210;2022-10-31T09:53:02;100676.00;;;20.90
11424;BMP180;5768;51.476;7.210;2022-10-31T09:58:14;100664.00;;;21.10
11424;BMP180;5768;51.476;7.210;2022-10-31T10:03:29;100668.00;;;21.30
11424;BMP180;5768;51.476;7.210;2022-10-31T10:08:34;100682.00;;;21.50
11424;BMP180;5768;51.476;7.210;2022-10-31T10:13:59;100670.00;;;21.60
11424;BMP180;5768;51.476;7.210;2022-10-31T10:19:26;100674.00;;;21.80
11424;BMP180;5768;51.476;7.210;2022-10-31T10:24:50;100658.00;;;21.90
11424;BMP180;5768;51.476;7.210;2022-10-31T10:30:07;100649.00;;;22.00
11424;BMP180;5768;51.476;7.210;2022-10-31T10:35:22;100645.00;;;22.00
11424;BMP180;5768;51.476;7.210;2022-10-31T10:40:27;100639.00;;;22.00
11424;BMP180;5768;51.476;7.210;2022-10-31T10:45:31;100641.00;;;22.20
11424;BMP180;5768;51.476;7.210;2022-10-31T10:50:52;100625.00;;;22.50
11424;BMP180;5768;51.476;7.210;2022-10-31T10:56:00;100614.00;;;22.60
11424;BMP180;5768;51.476;7.210;2022-10-31T11:01:11;100608.00;;;22.70
11424;BMP180;5768;51.476;7.210;2022-10-31T11:06:20;100601.00;;;22.70
11424;BMP180;5768;51.476;7.210;2022-10-31T11:11:29;100591.00;;;22.80
11424;BMP180;5768;51.476;7.210;2022-10-31T11:16:38;100572.00;;;22.80
11424;BMP180;5768;51.476;7.210;2022-10-31T11:21:40;100559.00;;;22.90
11424;BMP180;5768;51.476;7.210;2022-10-31T11:26:45;100545.00;;;22.80
11424;BMP180;5768;51.476;7.210;2022-10-31T11:31:52;100528.00;;;23.00
11424;BMP180;5768;51.476;7.210;2022-10-31T11:37:03;100520.00;;;23.10
11424;BMP180;5768;51.476;7.210;2022-10-31T11:42:06;100535.00;;;23.20
11424;BMP180;5768;51.476;7.210;2022-10-31T11:47:15;100536.00;;;23.40
11424;BMP180;5768;51.476;7.210;2022-10-31T11:52:25;100520.00;;;23.60
11424;BMP180;5768;51.476;7.210;2022-10-31T11:57:29;100517.00;;;23.60
11424;BMP180;5768;51.476;7.210;2022-10-31T12:02:34;100499.00;;;23.70
11424;BMP180;5768;51.476;7.210;2022-10-31T12:07:37;100495.00;;;23.80
11424;BMP180;5768;51.476;7.210;2022-10-31T12:12:56;100493.00;;;23.90
11424;BMP180;5768;51.476;7.210;2022-10-31T12:18:36;100480.00;;;24.10
11424;BMP180;5768;51.476;7.210;2022-10-31T12:23:52;100476.00;;;24.20
11424;BMP180;5768;51.476;7.210;2022-10-31T12:29:11;100468.00;;;24.40
11424;BMP180;5768;51.476;7.210;2022-10-31T12:34:45;100446.00;;;24.60
11424;BMP180;5768;51.476;7.210;2022-10-31T12:40:07;100440.00;;;25.10
11424;BMP180;5768;51.476;7.210;2022-10-31T12:45:49;100435.00;;;25.50
11424;BMP180;5768;51.476;7.210;2022-10-31T12:51:04;100428.00;;;25.90
11424;BMP180;5768;51.476;7.210;2022-10-31T12:56:27;100417.00;;;26.40
11424;BMP180;5768;51.476;7.210;2022-10-31T13:01:38;100416.00;;;27.00
11424;BMP180;5768;51.476;7.210;2022-10-31T13:06:48;100396.00;;;27.30
11424;BMP180;5768;51.476;7.210;2022-10-31T13:11:58;100373.00;;;27.70
11424;BMP180;5768;51.476;7.210;2022-10-31T13:17:04;100384.00;;;27.80
11424;BMP180;5768;51.476;7.210;2022-10-31T13:22:13;100375.00;;;27.50
11424;BMP180;5768;51.476;7.210;2022-10-31T13:27:22;100377.00;;;27.10
11424;BMP180;5768;51.476;7.210;2022-10-31T13:32:30;100352.00;;;26.60
11424;BMP180;5768;51.476;7.210;2022-10-31T13:37:44;100339.00;;;26.40
11424;BMP180;5768;51.476;7.210;2022-10-31T13:42:58;100326.00;;;26.20
11424;BMP180;5768;51.476;7.210;2022-10-31T13:48:36;100316.00;;;26.20
11424;BMP180;5768;51.476;7.210;2022-10-31T13:53:57;100307.00;;;26.40
11424;BMP180;5768;51.476;7.210;2022-10-31T13:59:17;100287.00;;;26.80
11424;BMP180;5768;51.476;7.210;2022-10-31T14:04:24;100288.00;;;27.50
11424;BMP180;5768;51.476;7.210;2022-10-31T14:09:31;100282.00;;;27.70
11424;BMP180;5768;51.476;7.210;2022-10-31T14:14:49;100273.00;;;27.60
11424;BMP180;5768;51.476;7.210;2022-10-31T14:25:32;100261.00;;;28.70
11424;BMP180;5768;51.476;7.210;2022-10-31T14:30:36;100257.00;;;29.10
11424;BMP180;5768;51.476;7.210;2022-10-31T14:35:58;100266.00;;;29.10
11424;BMP180;5768;51.476;7.210;2022-10-31T14:41:40;100246.00;;;28.80
11424;BMP180;5768;51.476;7.210;2022-10-31T14:46:56;100232.00;;;28.10
11424;BMP180;5768;51.476;7.210;2022-10-31T14:52:01;100231.00;;;27.60
11424;BMP180;5768;51.476;7.210;2022-10-31T14:57:14;100223.00;;;26.90
11424;BMP180;5768;51.476;7.210;2022-10-31T15:02:25;100219.00;;;26.70
11424;BMP180;5768;51.476;7.210;2022-10-31T15:07:28;100199.00;;;26.40
11424;BMP180;5768;51.476;7.210;2022-10-31T15:12:34;100198.00;;;26.00
11424;BMP180;5768;51.476;7.210;2022-10-31T15:17:44;100193.00;;;25.80
11424;BMP180;5768;51.476;7.210;2022-10-31T15:22:50;100181.00;;;25.60
11424;BMP180;5768;51.476;7.210;2022-10-31T15:27:54;100195.00;;;25.30
11424;BMP180;5768;51.476;7.210;2022-10-31T15:32:56;100168.00;;;25.00
11424;BMP180;5768;51.476;7.210;2022-10-31T15:37:59;100156.00;;;24.80
11424;BMP180;5768;51.476;7.210;2022-10-31T15:43:05;100157.00;;;24.70
11424;BMP180;5768;51.476;7.210;2022-10-31T15:48:16;100152.00;;;24.50
11424;BMP180;5768;51.476;7.210;2022-10-31T15:53:25;100144.00;;;24.20
11424;BMP180;5768;51.476;7.210;2022-10-31T15:58:30;100145.00;;;24.00
11424;BMP180;5768;51.476;7.210;2022-10-31T16:03:34;100133.00;;;23.60
11424;BMP180;5768;51.476;7.210;2022-10-31T16:08:36;100122.00;;;23.30
11424;BMP180;5768;51.476;7.210;2022-10-31T16:14:16;100114.00;;;23.00
11424;BMP180;5768;51.476;7.210;2022-10-31T16:19:54;100120.00;;;22.70
11424;BMP180;5768;51.476;7.210;2022-10-31T16:25:24;100095.00;;;22.50
11424;BMP180;5768;51.476;7.210;2022-10-31T16:36:46;100105.00;;;22.10
11424;BMP180;5768;51.476;7.210;2022-10-31T16:47:45;100098.00;;;21.60
11424;BMP180;5768;51.476;7.210;2022-10-31T16:52:54;100093.00;;;21.50
11424;BMP180;5768;51.476;7.210;2022-10-31T16:58:03;100086.00;;;21.30
11424;BMP180;5768;51.476;7.210;2022-10-31T17:15:02;100057.00;;;20.90
11424;BMP180;5768;51.476;7.210;2022-10-31T17:20:39;100061.00;;;20.90
11424;BMP180;5768;51.476;7.210;2022-10-31T17:26:36;100038.00;;;20.80
11424;BMP180;5768;51.476;7.210;2022-10-31T17:31:53;100062.00;;;20.90
11424;BMP180;5768;51.476;7.210;2022-10-31T17:37:05;100045.00;;;20.90
11424;BMP180;5768;51.476;7.210;2022-10-31T17:42:19;100046.00;;;20.80
11424;BMP180;5768;51.476;7.210;2022-10-31T17:47:24;100050.00;;;20.80
11424;BMP180;5768;51.476;7.210;2022-10-31T17:52:56;100043.00;;;20.80
11424;BMP180;5768;51.476;7.210;2022-10-31T18:03:43;100043.00;;;20.70
11424;BMP180;5768;51.476;7.210;2022-10-31T18:08:50;100046.00;;;20.80
11424;BMP180;5768;51.476;7.210;2022-10-31T18:14:00;100036.00;;;20.90
11424;BMP180;5768;51.476;7.210;2022-10-31T18:19:13;100041.00;;;20.90
11424;BMP180;5768;51.476;7.210;2022-10-31T18:24:16;100019.00;;;20.80
11424;BMP180;5768;51.476;7.210;2022-10-31T18:29:20;100032.00;;;20.70
11424;BMP180;5768;51.476;7.210;2022-10-31T18:34:22;100035.00;;;20.60
11424;BMP180;5768;51.476;7.210;2022-10-31T18:39:25;100019.00;;;20.50
11424;BMP180;5768;51.476;7.210;2022-10-31T18:44:28;100026.00;;;20.40
11424;BMP180;5768;51.476;7.210;2022-10-31T18:49:31;100026.00;;;20.30
11424;BMP180;5768;51.476;7.210;2022-10-31T18:54:34;100027.00;;;20.20
11424;BMP180;5768;51.476;7.210;2022-10-31T18:59:37;100022.00;;;20.20
11424;BMP180;5768;51.476;7.210;2022-10-31T19:04:40;100018.00;;;20.10
11424;BMP180;5768;51.476;7.210;2022-10-31T19:09:42;100014.00;;;20.10
11424;BMP180;5768;51.476;7.210;2022-10-31T19:14:45;100007.00;;;20.10
11424;BMP180;5768;51.476;7.210;2022-10-31T19:19:49;100004.00;;;20.10
11424;BMP180;5768;51.476;7.210;2022-10-31T19:24:51;99989.00;;;20.00
11424;BMP180;5768;51.476;7.210;2022-10-31T19:29:54;99989.00;;;20.00
11424;BMP180;5768;51.476;7.210;2022-10-31T19:34:57;99986.00;;;19.90
11424;BMP180;5768;51.476;7.210;2022-10-31T19:39:59;99978.00;;;19.90
11424;BMP180;5768;51.476;7.210;2022-10-31T19:45:03;99978.00;;;19.90
11424;BMP180;5768;51.476;7.210;2022-10-31T19:50:07;99973.00;;;19.80
11424;BMP180;5768;51.476;7.210;2022-10-31T19:55:09;99969.00;;;19.90
11424;BMP180;5768;51.476;7.210;2022-10-31T20:00:14;99969.00;;;19.90
11424;BMP180;5768;51.476;7.210;2022-10-31T20:05:16;99964.00;;;19.90
11424;BMP180;5768;51.476;7.210;2022-10-31T20:10:18;99964.00;;;19.90
11424;BMP180;5768;51.476;7.210;2022-10-31T20:15:22;99954.00;;;19.80
11424;BMP180;5768;51.476;7.210;2022-10-31T20:20:24;99955.00;;;19.70
11424;BMP180;5768;51.476;7.210;2022-10-31T20:25:29;99951.00;;;19.70
11424;BMP180;5768;51.476;7.210;2022-10-31T20:30:54;99945.00;;;19.70
11424;BMP180;5768;51.476;7.210;2022-10-31T20:35:56;99940.00;;;19.70
11424;BMP180;5768;51.476;7.210;2022-10-31T20:40:59;99941.00;;;19.60
11424;BMP180;5768;51.476;7.210;2022-10-31T20:46:06;99933.00;;;19.60
11424;BMP180;5768;51.476;7.210;2022-10-31T20:51:14;99930.00;;;19.70
11424;BMP180;5768;51.476;7.210;2022-10-31T20:56:18;99925.00;;;19.70
11424;BMP180;5768;51.476;7.210;2022-10-31T21:01:25;99916.00;;;19.70
11424;BMP180;5768;51.476;7.210;2022-10-31T21:06:28;99907.00;;;19.80
11424;BMP180;5768;51.476;7.210;2022-10-31T21:11:31;99901.00;;;19.80
11424;BMP180;5768;51.476;7.210;2022-10-31T21:16:35;99899.00;;;19.90
11424;BMP180;5768;51.476;7.210;2022-10-31T21:21:37;99905.00;;;19.90
11424;BMP180;5768;51.476;7.210;2022-10-31T21:26:43;99888.00;;;20.00
11424;BMP180;5768;51.476;7.210;2022-10-31T21:31:48;99876.00;;;20.00
11424;BMP180;5768;51.476;7.210;2022-10-31T21:36:53;99880.00;;;20.10
11424;BMP180;5768;51.476;7.210;2022-10-31T21:41:55;99876.00;;;20.10
11424;BMP180;5768;51.476;7.210;2022-10-31T21:46:59;99865.00;;;20.10
11424;BMP180;5768;51.476;7.210;2022-10-31T21:52:01;99870.00;;;20.20
11424;BMP180;5768;51.476;7.210;2022-10-31T21:57:06;99846.00;;;20.20
11424;BMP180;5768;51.476;7.210;2022-10-31T22:02:11;99840.00;;;20.20
11424;BMP180;5768;51.476;7.210;2022-10-31T22:07:13;99846.00;;;20.20
11424;BMP180;5768;51.476;7.210;2022-10-31T22:12:16;99834.00;;;20.20
11424;BMP180;5768;51.476;7.210;2022-10-31T22:17:20;99835.00;;;20.10
11424;BMP180;5768;51.476;7.210;2022-10-31T22:22:22;99832.00;;;20.10
11424;BMP180;5768;51.476;7.210;2022-10-31T22:27:24;99820.00;;;20.10
11424;BMP180;5768;51.476;7.210;2022-10-31T22:32:27;99817.00;;;20.00
11424;BMP180;5768;51.476;7.210;2022-10-31T22:37:30;99820.00;;;20.00
11424;BMP180;5768;51.476;7.210;2022-10-31T22:42:32;99807.00;;;20.00
11424;BMP180;5768;51.476;7.210;2022-10-31T22:47:35;99794.00;;;20.00
11424;BMP180;5768;51.476;7.210;2022-10-31T22:52:38;99793.00;;;19.90
11424;BMP180;5768;51.476;7.210;2022-10-31T22:57:40;99792.00;;;19.90
11424;BMP180;5768;51.476;7.210;2022-10-31T23:02:44;99796.00;;;19.90
11424;BMP180;5768;51.476;7.210;2022-10-31T23:07:46;99794.00;;;20.00
11424;BMP180;5768;51.476;7.210;2022-10-31T23:12:48;99787.00;;;20.00
11424;BMP180;5768;51.476;7.210;2022-10-31T23:18:09;99794.00;;;20.10
11424;BMP180;5768;51.476;7.210;2022-10-31T23:23:11;99788.00;;;20.20
11424;BMP180;5768;51.476;7.210;2022-10-31T23:28:14;99786.00;;;20.20
11424;BMP180;5768;51.476;7.210;2022-10-31T23:33:18;99775.00;;;20.20
11424;BMP180;5768;51.476;7.210;2022-10-31T23:38:20;99781.00;;;20.30
11424;BMP180;5768;51.476;7.210;2022-10-31T23:43:22;99786.00;;;20.40
11424;BMP180;5768;51.476;7.210;2022-10-31T23:48:25;99793.00;;;20.50
11424;BMP180;5768;51.476;7.210;2022-10-31T23:53:27;99797.00;;;20.50
11424;BMP180;5768;51.476;7.210;2022-10-31T23:58:30;99801.00;;;20.60
